Terminal Aerodrome Forecast
Issued by NWS

Home | Current Version | Previous Version | Text Only | Print | Product List | Glossary On
Versions: 1 2 3 4 5 6 7 8 9 10 11 12 13 14 15 16 17
000
FTUS41 KLWX 271100
TAFMTN
TAF
KMTN 271140Z 2712/2812 VRB03KT P6SM BKN130
     FM272000 17005KT P6SM SCT200
     FM281000 25004KT P6SM OVC080=

USA.gov is the U.S. government's official web portal to all federal, state and local government web resources and services.